Time;durP1;ratioP1;P1;durP2;ratioP2;P2;SDS_P1;SDS_P2;PMS_P1;PMS_P2;Temp;Humidity;BMP_temperature;BMP_pressure;BME280_temperature;BME280_humidity;BME280_pressure;Samples;Min_cycle;Max_cycle;Signal;HPM_P1;HPM_P2
2023/09/04 00:01:03;;;;;;;1999.90;999.90;;;;;;;16.44;100.00;95484.78;5009096;28;20215;-56
2023/09/04 00:03:28;;;;;;;1999.90;999.90;;;;;;;16.43;100.00;95472.22;5009082;28;20201;-53
2023/09/04 00:05:54;;;;;;;1999.90;999.90;;;;;;;16.40;100.00;95477.81;5009577;28;20282;-56
2023/09/04 00:08:20;;;;;;;1999.90;999.90;;;;;;;16.38;100.00;95489.28;5009441;28;20405;-54
2023/09/04 00:10:45;;;;;;;1999.90;999.90;;;;;;;16.30;100.00;95495.44;5009065;28;20203;-56
2023/09/04 00:13:12;;;;;;;1999.90;999.90;;;;;;;16.31;100.00;95488.69;5008757;28;20274;-57
2023/09/04 00:15:38;;;;;;;1999.90;999.90;;;;;;;16.31;100.00;95485.94;5009371;28;20226;-55
2023/09/04 00:18:04;;;;;;;1999.90;999.90;;;;;;;16.33;100.00;95478.78;5009274;28;20191;-57
2023/09/04 00:20:29;;;;;;;1999.90;999.90;;;;;;;16.32;100.00;95471.72;5009029;28;20195;-56
2023/09/04 00:22:55;;;;;;;1999.90;999.90;;;;;;;16.29;100.00;95485.63;5008649;28;20211;-57
2023/09/04 00:25:21;;;;;;;1999.90;999.90;;;;;;;16.30;100.00;95490.69;5008816;28;20202;-57
2023/09/04 00:27:46;;;;;;;1999.90;999.90;;;;;;;16.27;100.00;95480.53;5008748;28;20191;-53
2023/09/04 00:30:12;;;;;;;1999.90;999.90;;;;;;;16.27;100.00;95477.00;5008604;28;20199;-56
2023/09/04 00:32:38;;;;;;;1999.90;999.90;;;;;;;16.23;100.00;95471.59;5008472;28;20199;-56
2023/09/04 00:35:04;;;;;;;1999.90;999.90;;;;;;;16.19;100.00;95473.69;5008304;28;20214;-56
2023/09/04 00:37:29;;;;;;;1999.90;999.90;;;;;;;16.17;100.00;95478.06;5008489;28;20191;-57
2023/09/04 00:39:55;;;;;;;1999.90;999.90;;;;;;;16.19;100.00;95472.91;5008659;28;20285;-56
2023/09/04 00:42:20;;;;;;;1999.90;999.90;;;;;;;16.17;100.00;95473.34;5008357;28;20273;-54
2023/09/04 00:44:49;;;;;;;1999.90;999.90;;;;;;;16.13;100.00;95472.69;5008870;28;20266;-55
2023/09/04 00:47:17;;;;;;;1999.90;999.90;;;;;;;16.10;100.00;95459.78;5008697;28;20234;-56
2023/09/04 00:49:45;;;;;;;1999.90;999.90;;;;;;;16.08;100.00;95459.44;5008788;28;20236;-55
2023/09/04 00:52:11;;;;;;;1999.90;999.90;;;;;;;16.04;100.00;95456.03;5008495;28;20199;-54
2023/09/04 00:54:37;;;;;;;1999.90;999.90;;;;;;;16.01;100.00;95456.88;5008480;28;20202;-57
2023/09/04 00:57:04;;;;;;;1999.90;999.90;;;;;;;15.99;100.00;95462.06;5007987;28;20281;-56
2023/09/04 00:59:30;;;;;;;1999.90;999.90;;;;;;;16.00;100.00;95458.06;5008207;28;20270;-55
2023/09/04 01:01:59;;;;;;;1999.90;999.90;;;;;;;15.99;100.00;95464.81;5007868;28;20222;-55
2023/09/04 01:04:24;;;;;;;1999.90;999.90;;;;;;;15.98;100.00;95462.47;5008103;28;20263;-54
2023/09/04 01:06:49;;;;;;;1999.90;999.90;;;;;;;15.96;100.00;95459.41;5008169;28;20210;-53
2023/09/04 01:09:15;;;;;;;1999.90;999.90;;;;;;;15.93;100.00;95463.81;5008459;28;20195;-55
2023/09/04 01:11:55;;;;;;;1999.90;999.90;;;;;;;15.95;100.00;95457.84;5007738;28;20282;-55
2023/09/04 01:14:23;;;;;;;1999.90;999.90;;;;;;;15.91;100.00;95457.94;5007748;28;20198;-57
2023/09/04 01:16:49;;;;;;;1999.90;999.90;;;;;;;15.85;100.00;95454.16;5008120;28;20201;-56
2023/09/04 01:19:17;;;;;;;1999.90;999.90;;;;;;;15.83;100.00;95451.09;5008185;28;20203;-57
2023/09/04 01:21:42;;;;;;;1999.90;999.90;;;;;;;15.78;100.00;95451.63;5007967;28;20358;-56
2023/09/04 01:24:08;;;;;;;1999.90;999.90;;;;;;;15.76;100.00;95442.25;5007839;28;20206;-57
2023/09/04 01:26:47;;;;;;;1999.90;999.90;;;;;;;15.72;100.00;95439.59;5007698;28;20202;-56
2023/09/04 01:29:31;;;;;;;1999.90;999.90;;;;;;;15.67;100.00;95425.59;5007783;28;20201;-54
2023/09/04 01:32:03;;;;;;;1999.90;999.90;;;;;;;15.66;100.00;95415.78;5007451;28;20222;-57
2023/09/04 01:34:32;;;;;;;1999.90;999.90;;;;;;;15.63;100.00;95409.16;5008250;28;20210;-56
2023/09/04 01:36:58;;;;;;;1999.90;999.90;;;;;;;15.61;100.00;95406.06;5007996;28;20206;-56
2023/09/04 01:39:26;;;;;;;1999.90;999.90;;;;;;;15.56;100.00;95387.31;5007928;28;20274;-55
2023/09/04 01:41:51;;;;;;;1999.90;999.90;;;;;;;15.59;100.00;95385.69;5007317;28;20206;-55
2023/09/04 01:44:17;;;;;;;1999.90;999.90;;;;;;;15.56;100.00;95379.06;5007554;28;20198;-56
2023/09/04 01:46:43;;;;;;;1999.90;999.90;;;;;;;15.56;100.00;95370.06;5009122;28;20215;-53
2023/09/04 01:49:08;;;;;;;1999.90;999.90;;;;;;;15.56;100.00;95365.28;5012051;28;20582;-57
2023/09/04 01:51:34;;;;;;;1999.90;999.90;;;;;;;15.55;100.00;95363.00;5011619;28;20195;-56
2023/09/04 01:54:00;;;;;;;1999.90;999.90;;;;;;;15.49;100.00;95365.53;5011685;28;20249;-56
2023/09/04 01:56:25;;;;;;;1999.90;999.90;;;;;;;15.50;100.00;95363.53;5011522;28;20282;-53
2023/09/04 01:58:50;;;;;;;1999.90;999.90;;;;;;;15.47;100.00;95367.91;5011687;28;20195;-53
2023/09/04 02:01:16;;;;;;;1999.90;999.90;;;;;;;15.45;100.00;95369.56;5011433;28;20268;-52
2023/09/04 02:03:52;;;;;;;1999.90;999.90;;;;;;;15.41;100.00;95363.38;5011790;28;20206;-54
2023/09/04 02:06:18;;;;;;;1999.90;999.90;;;;;;;15.38;100.00;95353.25;5011547;28;20190;-56
2023/09/04 02:08:45;;;;;;;1999.90;999.90;;;;;;;15.34;100.00;95356.03;5011721;28;20230;-56
2023/09/04 02:11:10;;;;;;;1999.90;999.90;;;;;;;15.32;100.00;95355.72;5011131;28;20194;-58
2023/09/04 02:13:36;;;;;;;1999.90;999.90;;;;;;;15.27;100.00;95361.75;5011981;28;20195;-57
2023/09/04 02:16:01;;;;;;;1999.90;999.90;;;;;;;15.25;100.00;95364.16;5011287;28;20194;-56
2023/09/04 02:18:27;;;;;;;1999.90;999.90;;;;;;;15.21;100.00;95358.00;5011116;28;20249;-56
2023/09/04 02:20:52;;;;;;;1999.90;999.90;;;;;;;15.11;100.00;95356.28;5011120;28;20187;-54
2023/09/04 02:23:18;;;;;;;1999.90;999.90;;;;;;;15.09;100.00;95336.72;5011012;28;20253;-54
2023/09/04 02:25:46;;;;;;;1999.90;999.90;;;;;;;15.08;100.00;95324.13;5011153;28;20187;-56
2023/09/04 02:28:11;;;;;;;1999.90;999.90;;;;;;;15.06;100.00;95321.06;5011005;28;20222;-53
2023/09/04 02:30:37;;;;;;;1999.90;999.90;;;;;;;15.05;100.00;95314.00;5011589;28;20214;-55
2023/09/04 02:33:03;;;;;;;1999.90;999.90;;;;;;;15.01;100.00;95318.06;5011357;28;20187;-55
2023/09/04 02:35:28;;;;;;;1999.90;999.90;;;;;;;14.97;100.00;95312.66;5011215;28;20226;-56
2023/09/04 02:37:54;;;;;;;1999.90;999.90;;;;;;;14.96;100.00;95305.59;5011229;28;20199;-55
2023/09/04 02:40:19;;;;;;;1999.90;999.90;;;;;;;14.94;100.00;95297.00;5011179;28;20194;-54
2023/09/04 02:42:44;;;;;;;1999.90;999.90;;;;;;;14.94;100.00;95291.50;5010413;28;20257;-55
2023/09/04 02:45:10;;;;;;;1999.90;999.90;;;;;;;14.92;100.00;95282.94;5010424;28;20191;-58
2023/09/04 02:47:37;;;;;;;1999.90;999.90;;;;;;;14.90;100.00;95284.56;5010635;28;20278;-54
2023/09/04 02:50:04;;;;;;;1999.90;999.90;;;;;;;14.84;100.00;95287.09;5010866;28;20198;-56
2023/09/04 02:52:30;;;;;;;1999.90;999.90;;;;;;;14.76;100.00;95291.22;5010525;28;20282;-56
2023/09/04 02:54:55;;;;;;;1999.90;999.90;;;;;;;14.75;100.00;95275.91;5010354;28;20194;-55
2023/09/04 02:57:20;;;;;;;1999.90;999.90;;;;;;;14.74;100.00;95271.63;5010366;28;20248;-58
2023/09/04 02:59:46;;;;;;;1999.90;999.90;;;;;;;14.74;100.00;95270.84;5010289;28;20186;-55
2023/09/04 03:02:11;;;;;;;1999.90;999.90;;;;;;;14.73;100.00;95259.09;5010660;28;20286;-55
2023/09/04 03:04:36;;;;;;;1999.90;999.90;;;;;;;14.69;100.00;95263.91;5010387;28;20195;-54
2023/09/04 03:07:02;;;;;;;1999.90;999.90;;;;;;;14.72;100.00;95257.53;5010591;28;20203;-54
2023/09/04 03:09:27;;;;;;;1999.90;999.90;;;;;;;14.74;100.00;95244.13;5010243;28;20203;-55
2023/09/04 03:11:53;;;;;;;1999.90;999.90;;;;;;;14.72;100.00;95235.53;5009813;28;20199;-54
2023/09/04 03:14:18;;;;;;;1999.90;999.90;;;;;;;14.73;100.00;95237.09;5010089;28;20199;-53
2023/09/04 03:16:43;;;;;;;1999.90;999.90;;;;;;;14.74;100.00;95227.66;5009835;28;20195;-61
2023/09/04 03:19:09;;;;;;;1999.90;999.90;;;;;;;14.75;100.00;95226.44;5009881;28;20187;-55
2023/09/04 03:21:34;;;;;;;1999.90;999.90;;;;;;;14.73;100.00;95225.31;5009850;28;20235;-56
2023/09/04 03:23:59;;;;;;;1999.90;999.90;;;;;;;14.73;100.00;95226.09;5009769;28;20278;-55
2023/09/04 03:26:26;;;;;;;1999.90;999.90;;;;;;;14.71;100.00;95214.75;5010266;28;20195;-56
2023/09/04 03:28:51;;;;;;;1999.90;999.90;;;;;;;14.69;100.00;95210.91;5010326;28;20363;-56
2023/09/04 03:31:17;;;;;;;1999.90;999.90;;;;;;;14.70;100.00;95199.47;5010081;28;20214;-57
2023/09/04 03:33:42;;;;;;;1999.90;999.90;;;;;;;14.69;100.00;95194.41;5009582;28;20197;-53
2023/09/04 03:36:09;;;;;;;1999.90;999.90;;;;;;;14.66;100.00;95187.81;5009813;28;20202;-57
2023/09/04 03:38:35;;;;;;;1999.90;999.90;;;;;;;14.64;100.00;95179.22;5009821;28;20205;-55
2023/09/04 03:41:00;;;;;;;1999.90;999.90;;;;;;;14.62;100.00;95175.38;5009824;28;20199;-57
2023/09/04 03:43:28;;;;;;;1999.90;999.90;;;;;;;14.61;100.00;95180.06;5009414;28;20281;-56
2023/09/04 03:45:53;;;;;;;1999.90;999.90;;;;;;;14.61;100.00;95173.81;5009784;28;20191;-56
2023/09/04 03:48:18;;;;;;;1999.90;999.90;;;;;;;14.57;100.00;95168.41;5009230;28;20375;-54
2023/09/04 03:50:44;;;;;;;1999.90;999.90;;;;;;;14.57;100.00;95175.91;5009380;28;20202;-57
2023/09/04 03:53:09;;;;;;;1999.90;999.90;;;;;;;14.52;100.00;95182.69;5009419;28;20199;-57
2023/09/04 03:55:34;;;;;;;1999.90;999.90;;;;;;;14.52;100.00;95176.41;5009372;28;20195;-56
2023/09/04 03:58:00;;;;;;;1999.90;999.90;;;;;;;14.49;100.00;95172.56;5008895;28;20195;-54
2023/09/04 04:00:25;;;;;;;1999.90;999.90;;;;;;;14.48;100.00;95173.00;5009066;28;20263;-57
2023/09/04 04:02:53;;;;;;;1999.90;999.90;;;;;;;14.44;100.00;95170.34;5009015;28;20199;-57
2023/09/04 04:05:20;;;;;;;1999.90;999.90;;;;;;;14.42;100.00;95170.00;5009274;28;20199;-57
2023/09/04 04:07:46;;;;;;;1999.90;999.90;;;;;;;14.44;100.00;95175.84;5009062;28;20202;-52
2023/09/04 04:10:11;;;;;;;1999.90;999.90;;;;;;;14.44;100.00;95184.09;5008771;28;20199;-53
2023/09/04 04:12:37;;;;;;;1999.90;999.90;;;;;;;14.44;100.00;95180.56;5009171;28;20215;-55
2023/09/04 04:15:06;;;;;;;1999.90;999.90;;;;;;;14.41;100.00;95189.66;5009052;28;20270;-54
2023/09/04 04:17:36;;;;;;;1999.90;999.90;;;;;;;14.43;100.00;95187.28;5008679;28;20195;-54
2023/09/04 04:20:06;;;;;;;1999.90;999.90;;;;;;;14.41;100.00;95179.47;5008620;28;20199;-52
2023/09/04 04:22:32;;;;;;;1999.90;999.90;;;;;;;14.42;100.00;95199.47;5008438;28;20219;-53
2023/09/04 04:24:57;;;;;;;1999.90;999.90;;;;;;;14.43;100.00;95201.78;5008929;28;20337;-55
2023/09/04 04:27:23;;;;;;;1999.90;999.90;;;;;;;14.41;100.00;95206.16;5008734;28;20192;-54
2023/09/04 04:29:49;;;;;;;1999.90;999.90;;;;;;;14.38;100.00;95213.28;5008509;28;20186;-55
2023/09/04 04:32:15;;;;;;;1999.90;999.90;;;;;;;14.38;100.00;95207.78;5009242;28;20249;-56
2023/09/04 04:34:42;;;;;;;1999.90;999.90;;;;;;;14.36;100.00;95207.47;5008516;28;20195;-54
2023/09/04 04:37:07;;;;;;;1999.90;999.90;;;;;;;14.36;100.00;95206.69;5008583;28;20194;-55
2023/09/04 04:39:33;;;;;;;1999.90;999.90;;;;;;;14.36;100.00;95207.47;5008245;28;20201;-52
2023/09/04 04:41:58;;;;;;;1999.90;999.90;;;;;;;14.41;100.00;95198.69;5008398;28;20285;-51
2023/09/04 04:44:24;;;;;;;1999.90;999.90;;;;;;;14.46;100.00;95200.16;5008610;28;20226;-53
2023/09/04 04:46:49;;;;;;;1999.90;999.90;;;;;;;14.60;100.00;95200.53;5007966;28;20191;-53
2023/09/04 04:49:21;;;;;;;1999.90;999.90;;;;;;;14.79;100.00;95202.34;5008297;28;20194;-54
2023/09/04 04:51:47;;;;;;;1999.90;999.90;;;;;;;14.93;100.00;95201.97;5008356;28;20190;-56
2023/09/04 04:54:12;;;;;;;1999.90;999.90;;;;;;;15.16;100.00;95190.69;5008578;28;20187;-50
2023/09/04 04:56:39;;;;;;;1999.90;999.90;;;;;;;15.44;100.00;95181.63;5008387;28;20179;-55
2023/09/04 04:59:05;;;;;;;1999.90;999.90;;;;;;;15.68;100.00;95169.09;5007988;28;20191;-52
2023/09/04 05:01:30;;;;;;;1999.90;999.90;;;;;;;15.85;100.00;95151.22;5008330;28;20203;-54
2023/09/04 05:03:55;;;;;;;1999.90;999.90;;;;;;;16.06;100.00;95156.03;5008711;28;20270;-52
2023/09/04 05:06:21;;;;;;;1999.90;999.90;;;;;;;16.08;100.00;95196.91;5007943;28;20203;-53
2023/09/04 05:08:46;;;;;;;1999.90;999.90;;;;;;;16.33;100.00;95252.00;5008104;28;20187;-53
2023/09/04 05:11:11;;;;;;;1999.90;999.90;;;;;;;16.75;100.00;95321.56;5008122;28;20195;-54
2023/09/04 05:13:37;;;;;;;1999.90;999.90;;;;;;;17.21;100.00;95429.19;5007972;28;20372;-54
2023/09/04 05:16:04;;;;;;;1999.90;999.90;;;;;;;17.35;100.00;95607.38;5007828;28;20214;-53
2023/09/04 05:18:30;;;;;;;1999.90;999.90;;;;;;;17.24;100.00;95767.06;5007831;28;20187;-53
2023/09/04 05:20:56;;;;;;;1999.90;999.90;;;;;;;17.30;100.00;95859.94;5006902;28;20191;-54
2023/09/04 05:23:22;;;;;;;1999.90;999.90;;;;;;;17.51;100.00;95927.66;5007803;28;20206;-53
2023/09/04 05:25:51;;;;;;;1999.90;999.90;;;;;;;17.68;100.00;95989.97;5008116;28;20191;-49
2023/09/04 05:28:17;;;;;;;1999.90;999.90;;;;;;;18.10;100.00;96055.19;5007878;28;20198;-54
2023/09/04 05:30:42;;;;;;;1999.90;999.90;;;;;;;18.55;100.00;96112.06;5008048;28;20179;-53
2023/09/04 05:33:08;;;;;;;1999.90;999.90;;;;;;;19.10;100.00;96169.81;5007740;28;20228;-53
2023/09/04 05:35:33;;;;;;;1999.90;999.90;;;;;;;19.18;100.00;96211.94;5007782;28;20246;-54
2023/09/04 05:37:58;;;;;;;1999.90;999.90;;;;;;;19.29;100.00;96226.28;5007694;28;20298;-54
2023/09/04 05:40:24;;;;;;;1999.90;999.90;;;;;;;19.33;100.00;96241.59;5007465;28;20199;-54
2023/09/04 05:42:50;;;;;;;1999.90;999.90;;;;;;;19.86;100.00;96251.13;5007248;28;20211;-54
2023/09/04 05:45:16;;;;;;;1999.90;999.90;;;;;;;20.00;100.00;96275.66;5007513;28;20202;-53
2023/09/04 05:47:42;;;;;;;1999.90;999.90;;;;;;;20.29;100.00;96284.66;5007414;28;20195;-53
2023/09/04 05:50:08;;;;;;;1999.90;999.90;;;;;;;20.60;100.00;96288.41;5007439;28;20492;-52
2023/09/04 05:52:33;;;;;;;1999.90;999.90;;;;;;;20.82;100.00;96299.59;5007545;28;20206;-55
2023/09/04 05:54:59;;;;;;;1999.90;999.90;;;;;;;21.47;100.00;96300.53;5007804;28;20237;-54
2023/09/04 05:57:24;;;;;;;1999.90;999.90;;;;;;;22.04;100.00;96306.34;5007762;28;20191;-59
2023/09/04 05:59:50;;;;;;;1999.90;999.90;;;;;;;22.09;100.00;96308.56;5007222;28;20179;-54
2023/09/04 06:02:15;;;;;;;1999.90;999.90;;;;;;;22.56;100.00;96311.09;5007583;28;20222;-54
2023/09/04 06:04:40;;;;;;;1999.90;999.90;;;;;;;21.67;100.00;96312.88;5007263;28;20195;-53
2023/09/04 06:07:06;;;;;;;1999.90;999.90;;;;;;;21.96;100.00;96313.41;5007622;28;20269;-53
2023/09/04 06:09:32;;;;;;;1999.90;999.90;;;;;;;22.41;100.00;96308.06;5007398;28;20194;-52
2023/09/04 06:11:58;;;;;;;1999.90;999.90;;;;;;;22.59;100.00;96312.97;5007310;28;20287;-52
2023/09/04 06:14:23;;;;;;;1999.90;999.90;;;;;;;22.94;100.00;96307.97;5007230;28;20237;-55
2023/09/04 06:16:48;;;;;;;1999.90;999.90;;;;;;;22.95;100.00;96318.66;5007098;28;20199;-52
2023/09/04 06:19:14;;;;;;;1999.90;999.90;;;;;;;22.98;100.00;96322.53;5006835;28;20199;-55
2023/09/04 06:21:39;;;;;;;1999.90;999.90;;;;;;;23.41;100.00;96323.06;5006793;28;20211;-56
2023/09/04 06:24:05;;;;;;;1999.90;999.90;;;;;;;23.57;100.00;96325.56;5007162;28;20198;-55
2023/09/04 06:26:30;;;;;;;1999.90;999.90;;;;;;;24.12;100.00;96323.50;5007191;28;20198;-55
2023/09/04 06:28:55;;;;;;;1999.90;999.90;;;;;;;24.28;100.00;96323.16;5006896;28;20206;-53
2023/09/04 06:31:21;;;;;;;1999.90;999.90;;;;;;;24.65;100.00;96319.00;5006987;28;20171;-55
2023/09/04 06:33:47;;;;;;;1999.90;999.90;;;;;;;23.87;100.00;96327.41;5010445;28;20253;-56
2023/09/04 06:36:13;;;;;;;1999.90;999.90;;;;;;;24.34;100.00;96321.28;5011085;28;20191;-50
2023/09/04 06:38:38;;;;;;;1999.90;999.90;;;;;;;25.45;100.00;96314.19;5010873;28;20300;-52
2023/09/04 06:41:04;;;;;;;1999.90;999.90;;;;;;;25.46;100.00;96321.34;5010948;28;20191;-53
2023/09/04 06:43:30;;;;;;;1999.90;999.90;;;;;;;25.56;100.00;96320.00;5010567;28;20278;-55
2023/09/04 06:45:56;;;;;;;1999.90;999.90;;;;;;;25.88;100.00;96330.31;5010381;28;20187;-52
2023/09/04 06:48:21;;;;;;;1999.90;999.90;;;;;;;25.69;100.00;96328.94;5010440;28;20194;-55
2023/09/04 06:50:50;;;;;;;1999.90;999.90;;;;;;;26.41;100.00;96321.88;5010568;28;20191;-53
2023/09/04 06:53:16;;;;;;;1999.90;999.90;;;;;;;26.39;100.00;96325.16;5010499;28;20270;-56
2023/09/04 06:55:42;;;;;;;1999.90;999.90;;;;;;;26.46;100.00;96324.78;5010286;28;20207;-56
2023/09/04 06:58:08;;;;;;;1999.90;999.90;;;;;;;26.45;100.00;96323.22;5010179;28;20191;-56
2023/09/04 07:00:33;;;;;;;1999.90;999.90;;;;;;;26.67;100.00;96318.00;5010276;28;20195;-56
2023/09/04 07:02:59;;;;;;;1999.90;999.90;;;;;;;27.19;100.00;96313.41;5010777;28;20195;-55
2023/09/04 07:05:24;;;;;;;1999.90;999.90;;;;;;;26.65;100.00;96320.50;5009008;28;20275;-57
2023/09/04 07:07:49;;;;;;;1999.90;999.90;;;;;;;27.00;100.00;96317.72;5010370;28;20195;-55
2023/09/04 07:10:15;;;;;;;1999.90;999.90;;;;;;;27.48;100.00;96319.69;5009965;28;20203;-57
2023/09/04 07:12:40;;;;;;;1999.90;999.90;;;;;;;28.12;100.00;96317.38;5010123;28;20249;-58
2023/09/04 07:15:06;;;;;;;1999.90;999.90;;;;;;;28.51;100.00;96319.81;5009861;28;20361;-53
2023/09/04 07:17:32;;;;;;;1999.90;999.90;;;;;;;28.67;100.00;96319.16;5009588;28;20191;-55
2023/09/04 07:19:58;;;;;;;1999.90;999.90;;;;;;;28.62;100.00;96336.78;5009937;28;20270;-56
2023/09/04 07:22:24;;;;;;;1999.90;999.90;;;;;;;28.65;100.00;96330.16;5009512;28;20213;-56
2023/09/04 07:24:50;;;;;;;1999.90;999.90;;;;;;;28.92;100.00;96338.03;5009769;28;20206;-55
2023/09/04 07:27:16;;;;;;;1999.90;999.90;;;;;;;26.60;100.00;96335.22;5009733;28;20234;-56
2023/09/04 07:29:41;;;;;;;1999.90;999.90;;;;;;;28.38;100.00;96328.63;5009726;28;20274;-59
2023/09/04 07:32:06;;;;;;;1999.90;999.90;;;;;;;27.93;100.00;96338.63;5009645;28;20187;-55
2023/09/04 07:34:32;;;;;;;1999.90;999.90;;;;;;;28.07;100.00;96332.13;5010134;28;20203;-56
2023/09/04 07:36:57;;;;;;;1999.90;999.90;;;;;;;28.88;100.00;96337.47;5009815;28;20249;-56
2023/09/04 07:39:22;;;;;;;1999.90;999.90;;;;;;;28.12;100.00;96342.66;5009925;28;20199;-56
2023/09/04 07:41:48;;;;;;;1999.90;999.90;;;;;;;27.46;100.00;96339.06;5009555;28;20206;-56
2023/09/04 07:44:13;;;;;;;1999.90;999.90;;;;;;;28.55;100.00;96342.84;5008617;28;20249;-55
2023/09/04 07:46:40;;;;;;;1999.90;999.90;;;;;;;29.10;100.00;96351.75;5009691;28;20238;-56
2023/09/04 07:49:05;;;;;;;1999.90;999.90;;;;;;;28.83;100.00;96350.22;5009577;28;20274;-55
2023/09/04 07:51:31;;;;;;;1999.90;999.90;;;;;;;29.40;100.00;96355.75;5009331;28;20199;-51
2023/09/04 07:53:56;;;;;;;1999.90;999.90;;;;;;;29.08;100.00;96359.91;5009517;28;20210;-55
2023/09/04 07:56:22;;;;;;;1999.90;999.90;;;;;;;28.36;100.00;96350.06;5009231;28;20253;-55
2023/09/04 07:58:48;;;;;;;1999.90;999.90;;;;;;;28.68;100.00;96357.25;5009668;28;20245;-55
2023/09/04 08:01:14;;;;;;;1999.90;999.90;;;;;;;27.21;100.00;96367.78;5009160;28;20190;-55
2023/09/04 08:03:40;;;;;;;1999.90;999.90;;;;;;;28.62;100.00;96353.66;5009131;28;20171;-55
2023/09/04 08:06:06;;;;;;;1999.90;999.90;;;;;;;29.87;100.00;96360.63;5009468;28;20222;-54
2023/09/04 08:08:31;;;;;;;1999.90;999.90;;;;;;;29.90;100.00;96359.59;5009273;28;20199;-57
2023/09/04 08:10:57;;;;;;;1999.90;999.90;;;;;;;31.02;100.00;96357.22;5009393;28;20203;-54
2023/09/04 08:13:22;;;;;;;1999.90;999.90;;;;;;;29.27;100.00;96359.00;5009366;28;20199;-54
2023/09/04 08:15:48;;;;;;;1999.90;999.90;;;;;;;29.85;100.00;96368.78;5008972;28;20199;-55
2023/09/04 08:18:13;;;;;;;1999.90;999.90;;;;;;;29.37;100.00;96368.03;5008338;28;20195;-54
2023/09/04 08:20:39;;;;;;;1999.90;999.90;;;;;;;30.22;100.00;96363.81;5008622;28;20218;-55
2023/09/04 08:23:09;;;;;;;1999.90;999.90;;;;;;;28.73;100.00;96365.00;5008354;28;20218;-55
2023/09/04 08:25:35;;;;;;;1999.90;999.90;;;;;;;30.24;100.00;96350.75;5008580;28;20199;-54
2023/09/04 08:28:02;;;;;;;1999.90;999.90;;;;;;;29.59;100.00;96345.63;5008756;28;20195;-54
2023/09/04 08:30:28;;;;;;;1999.90;999.90;;;;;;;29.57;100.00;96343.28;5008628;28;20191;-58
2023/09/04 08:32:53;;;;;;;1999.90;999.90;;;;;;;29.18;100.00;96344.38;5008509;28;20175;-53
2023/09/04 08:35:18;;;;;;;1999.90;999.90;;;;;;;30.53;100.00;96339.00;5008941;28;20278;-55
2023/09/04 08:37:44;;;;;;;1999.90;999.90;;;;;;;30.12;100.00;96348.41;5008909;28;20237;-54
2023/09/04 08:40:10;;;;;;;1999.90;999.90;;;;;;;30.50;100.00;96330.78;5008716;28;20199;-56
2023/09/04 08:42:38;;;;;;;1999.90;999.90;;;;;;;28.63;100.00;96341.13;5008202;28;20280;-55
2023/09/04 08:45:07;;;;;;;1999.90;999.90;;;;;;;29.25;100.00;96333.41;5008438;28;20195;-55
2023/09/04 08:47:38;;;;;;;1999.90;999.90;;;;;;;28.00;100.00;96341.00;5008678;28;20199;-54
2023/09/04 08:50:03;;;;;;;1999.90;999.90;;;;;;;27.84;100.00;96332.41;5008668;28;20229;-54
2023/09/04 08:52:29;;;;;;;1999.90;999.90;;;;;;;28.17;100.00;96352.41;5008168;28;20199;-54
2023/09/04 08:54:55;;;;;;;1999.90;999.90;;;;;;;28.50;100.00;96329.50;5008041;28;20202;-57
2023/09/04 08:57:22;;;;;;;1999.90;999.90;;;;;;;28.13;100.00;96330.16;5007996;28;20220;-53
2023/09/04 08:59:48;;;;;;;1999.90;999.90;;;;;;;29.13;100.00;96325.41;5008043;28;20199;-54
2023/09/04 09:02:16;;;;;;;1999.90;999.90;;;;;;;30.35;100.00;96328.22;5007903;28;20203;-52
2023/09/04 09:04:42;;;;;;;1999.90;999.90;;;;;;;29.95;100.00;96331.44;5008492;28;20207;-56
2023/09/04 09:07:09;;;;;;;1999.90;999.90;;;;;;;30.11;100.00;96335.56;5008493;28;20225;-54
2023/09/04 09:09:38;;;;;;;1999.90;999.90;;;;;;;29.11;100.00;96327.94;5008080;28;20210;-54
2023/09/04 09:12:04;;;;;;;1999.90;999.90;;;;;;;29.72;100.00;96338.25;5007873;28;20203;-55
2023/09/04 09:14:30;;;;;;;1999.90;999.90;;;;;;;30.06;100.00;96345.56;5007447;28;20195;-54
2023/09/04 09:17:06;;;;;;;1999.90;999.90;;;;;;;30.35;100.00;96350.78;5008190;28;20202;-54
2023/09/04 09:19:35;;;;;;;1999.90;999.90;;;;;;;28.85;100.00;96338.47;5007802;28;20190;-54
2023/09/04 09:22:20;;;;;;;1999.90;999.90;;;;;;;29.66;100.00;96339.53;5007717;28;20210;-54
2023/09/04 09:24:53;;;;;;;1999.90;999.90;;;;;;;29.13;100.00;96331.03;5008329;28;20221;-51
2023/09/04 09:27:21;;;;;;;1999.90;999.90;;;;;;;28.85;100.00;96332.84;5008140;28;20271;-55
2023/09/04 09:29:48;;;;;;;1999.90;999.90;;;;;;;29.21;100.00;96332.84;5007934;28;20195;-54
2023/09/04 09:32:16;;;;;;;1999.90;999.90;;;;;;;29.04;100.00;96322.78;5007546;28;20203;-56
2023/09/04 09:34:41;;;;;;;1999.90;999.90;;;;;;;29.74;100.00;96329.31;5007608;28;20266;-54
2023/09/04 09:37:08;;;;;;;1999.90;999.90;;;;;;;28.74;100.00;96333.56;5007575;28;20202;-53
2023/09/04 09:39:34;;;;;;;1999.90;999.90;;;;;;;29.68;91.57;96325.72;5007530;28;20211;-54
2023/09/04 09:42:01;;;;;;;1999.90;999.90;;;;;;;28.78;93.32;96322.06;5007655;28;20217;-54
2023/09/04 09:44:31;;;;;;;1999.90;999.90;;;;;;;29.52;93.82;96323.53;5007474;28;20194;-54
2023/09/04 09:46:56;;;;;;;1999.90;999.90;;;;;;;29.20;86.25;96325.69;5007408;28;20222;-54
2023/09/04 09:49:22;;;;;;;1999.90;999.90;;;;;;;28.86;85.44;96314.69;5007264;28;20218;-57
2023/09/04 09:51:52;;;;;;;1999.90;999.90;;;;;;;28.64;87.52;96317.34;5007483;28;20185;-52
2023/09/04 09:54:33;;;;;;;1999.90;999.90;;;;;;;28.51;93.58;96314.94;5007770;28;20195;-53
2023/09/04 09:56:59;;;;;;;1999.90;999.90;;;;;;;28.30;98.20;96308.59;5007878;28;20258;-49
2023/09/04 09:59:27;;;;;;;1999.90;999.90;;;;;;;29.22;96.81;96311.91;5007260;28;20238;-51
2023/09/04 10:01:53;;;;;;;1999.90;999.90;;;;;;;29.40;93.51;96310.69;5007863;28;20207;-52
2023/09/04 10:04:21;;;;;;;1999.90;999.90;;;;;;;28.90;98.36;96309.59;5007299;28;20414;-54
2023/09/04 10:06:48;;;;;;;1999.90;999.90;;;;;;;29.01;100.00;96313.31;5007214;28;20317;-51
2023/09/04 10:09:21;;;;;;;1999.90;999.90;;;;;;;28.05;92.46;96300.94;5011138;28;20201;-54
2023/09/04 10:11:48;;;;;;;1999.90;999.90;;;;;;;28.47;76.05;96313.66;5011257;28;20191;-54
2023/09/04 10:14:25;;;;;;;1999.90;999.90;;;;;;;28.60;78.89;96316.81;5011043;28;20207;-54
2023/09/04 10:16:55;;;;;;;1999.90;999.90;;;;;;;28.09;76.71;96312.72;5010883;28;20207;-55
2023/09/04 10:19:28;;;;;;;1999.90;999.90;;;;;;;28.97;74.45;96298.66;5011369;28;20206;-53
2023/09/04 10:21:59;;;;;;;1999.90;999.90;;;;;;;28.58;86.59;96296.88;5011191;28;20282;-55
2023/09/04 10:24:35;;;;;;;1999.90;999.90;;;;;;;28.15;89.14;96287.50;5011058;28;20245;-54
2023/09/04 10:27:05;;;;;;;1999.90;999.90;;;;;;;28.30;78.83;96291.72;5010992;28;20334;-55
2023/09/04 10:29:32;;;;;;;1999.90;999.90;;;;;;;27.79;81.59;96283.28;5011013;28;20218;-54
2023/09/04 10:32:00;;;;;;;1999.90;999.90;;;;;;;28.58;78.84;96271.56;5011067;28;20195;-54
2023/09/04 10:34:26;;;;;;;1999.90;999.90;;;;;;;28.70;76.61;96276.75;5010326;28;20181;-54
2023/09/04 10:36:51;;;;;;;1999.90;999.90;;;;;;;28.80;65.63;96286.53;5010851;28;20199;-54
2023/09/04 10:39:17;;;;;;;1999.90;999.90;;;;;;;29.90;61.89;96280.69;5011181;28;20195;-55
2023/09/04 10:41:43;;;;;;;1999.90;999.90;;;;;;;29.74;68.80;96278.59;5010498;28;20210;-53
2023/09/04 10:44:11;;;;;;;1999.90;999.90;;;;;;;30.09;71.17;96262.03;5010643;28;20214;-55